sensor_id;sensor_type;location;lat;lon;timestamp;P1;durP1;ratioP1;P2;durP2;ratioP2
15063;SDS011;7631;52.088;5.088;2023-05-02T00:02:05;11.40;;;8.50;;
15063;SDS011;7631;52.088;5.088;2023-05-02T00:04:30;10.23;;;8.87;;
15063;SDS011;7631;52.088;5.088;2023-05-02T00:06:55;11.90;;;8.87;;
15063;SDS011;7631;52.088;5.088;2023-05-02T00:09:21;10.73;;;8.50;;
15063;SDS011;7631;52.088;5.088;2023-05-02T00:11:46;9.57;;;8.47;;
15063;SDS011;7631;52.088;5.088;2023-05-02T00:14:11;10.13;;;8.50;;
15063;SDS011;7631;52.088;5.088;2023-05-02T00:16:37;11.73;;;9.57;;
15063;SDS011;7631;52.088;5.088;2023-05-02T00:19:02;10.10;;;8.37;;
15063;SDS011;7631;52.088;5.088;2023-05-02T00:21:27;9.93;;;7.97;;
15063;SDS011;7631;52.088;5.088;2023-05-02T00:23:56;10.07;;;8.17;;
15063;SDS011;7631;52.088;5.088;2023-05-02T00:26:22;10.63;;;8.47;;
15063;SDS011;7631;52.088;5.088;2023-05-02T00:28:48;10.10;;;8.10;;
15063;SDS011;7631;52.088;5.088;2023-05-02T00:31:13;10.53;;;8.23;;
15063;SDS011;7631;52.088;5.088;2023-05-02T00:33:39;10.27;;;8.23;;
15063;SDS011;7631;52.088;5.088;2023-05-02T00:36:04;9.00;;;8.10;;
15063;SDS011;7631;52.088;5.088;2023-05-02T00:38:29;9.27;;;7.80;;
15063;SDS011;7631;52.088;5.088;2023-05-02T00:40:54;9.37;;;7.73;;
15063;SDS011;7631;52.088;5.088;2023-05-02T00:43:20;10.07;;;8.03;;
15063;SDS011;7631;52.088;5.088;2023-05-02T00:45:45;10.30;;;7.80;;
15063;SDS011;7631;52.088;5.088;2023-05-02T00:48:11;9.30;;;8.03;;
15063;SDS011;7631;52.088;5.088;2023-05-02T00:50:37;10.57;;;7.97;;
15063;SDS011;7631;52.088;5.088;2023-05-02T00:53:04;9.47;;;7.77;;
15063;SDS011;7631;52.088;5.088;2023-05-02T00:55:30;7.53;;;6.57;;
15063;SDS011;7631;52.088;5.088;2023-05-02T00:57:56;9.23;;;6.97;;
15063;SDS011;7631;52.088;5.088;2023-05-02T01:00:22;9.13;;;7.03;;
15063;SDS011;7631;52.088;5.088;2023-05-02T01:02:52;8.93;;;7.20;;
15063;SDS011;7631;52.088;5.088;2023-05-02T01:10:25;8.30;;;6.77;;
15063;SDS011;7631;52.088;5.088;2023-05-02T01:13:01;8.47;;;6.57;;
15063;SDS011;7631;52.088;5.088;2023-05-02T01:15:27;6.87;;;5.77;;
15063;SDS011;7631;52.088;5.088;2023-05-02T01:17:53;7.63;;;6.03;;
15063;SDS011;7631;52.088;5.088;2023-05-02T01:20:20;6.77;;;5.93;;
15063;SDS011;7631;52.088;5.088;2023-05-02T01:22:47;7.17;;;5.63;;
15063;SDS011;7631;52.088;5.088;2023-05-02T01:25:18;8.70;;;5.50;;
15063;SDS011;7631;52.088;5.088;2023-05-02T01:28:00;6.67;;;5.80;;
15063;SDS011;7631;52.088;5.088;2023-05-02T01:30:27;7.07;;;4.97;;
15063;SDS011;7631;52.088;5.088;2023-05-02T01:32:54;5.97;;;5.23;;
15063;SDS011;7631;52.088;5.088;2023-05-02T01:35:21;6.47;;;5.13;;
15063;SDS011;7631;52.088;5.088;2023-05-02T01:37:47;6.50;;;5.20;;
15063;SDS011;7631;52.088;5.088;2023-05-02T01:40:16;6.37;;;4.50;;
15063;SDS011;7631;52.088;5.088;2023-05-02T01:42:42;5.57;;;4.43;;
15063;SDS011;7631;52.088;5.088;2023-05-02T01:45:08;6.93;;;4.90;;
15063;SDS011;7631;52.088;5.088;2023-05-02T01:47:35;6.57;;;4.60;;
15063;SDS011;7631;52.088;5.088;2023-05-02T01:50:05;5.87;;;4.40;;
15063;SDS011;7631;52.088;5.088;2023-05-02T01:52:31;6.50;;;4.10;;
15063;SDS011;7631;52.088;5.088;2023-05-02T01:54:58;5.93;;;3.93;;
15063;SDS011;7631;52.088;5.088;2023-05-02T01:57:24;6.27;;;3.97;;
15063;SDS011;7631;52.088;5.088;2023-05-02T01:59:49;5.60;;;3.57;;
15063;SDS011;7631;52.088;5.088;2023-05-02T02:02:15;5.47;;;3.83;;
15063;SDS011;7631;52.088;5.088;2023-05-02T02:04:40;4.83;;;3.63;;
15063;SDS011;7631;52.088;5.088;2023-05-02T02:07:07;6.13;;;3.33;;
15063;SDS011;7631;52.088;5.088;2023-05-02T02:09:33;5.77;;;3.47;;
15063;SDS011;7631;52.088;5.088;2023-05-02T02:14:37;5.00;;;3.37;;
15063;SDS011;7631;52.088;5.088;2023-05-02T02:17:13;4.27;;;2.70;;
15063;SDS011;7631;52.088;5.088;2023-05-02T02:19:39;4.63;;;3.30;;
15063;SDS011;7631;52.088;5.088;2023-05-02T02:22:05;4.30;;;3.10;;
15063;SDS011;7631;52.088;5.088;2023-05-02T02:24:31;5.10;;;3.37;;
15063;SDS011;7631;52.088;5.088;2023-05-02T02:26:59;4.73;;;2.87;;
15063;SDS011;7631;52.088;5.088;2023-05-02T02:29:24;4.53;;;2.83;;
15063;SDS011;7631;52.088;5.088;2023-05-02T02:31:49;3.97;;;2.30;;
15063;SDS011;7631;52.088;5.088;2023-05-02T02:34:15;6.40;;;3.10;;
15063;SDS011;7631;52.088;5.088;2023-05-02T02:36:44;6.10;;;2.57;;
15063;SDS011;7631;52.088;5.088;2023-05-02T02:41:39;4.80;;;2.43;;
15063;SDS011;7631;52.088;5.088;2023-05-02T02:46:44;3.60;;;2.37;;
15063;SDS011;7631;52.088;5.088;2023-05-02T02:49:17;4.67;;;2.50;;
15063;SDS011;7631;52.088;5.088;2023-05-02T02:51:52;3.93;;;2.30;;
15063;SDS011;7631;52.088;5.088;2023-05-02T02:54:27;4.17;;;2.30;;
15063;SDS011;7631;52.088;5.088;2023-05-02T02:56:59;4.33;;;2.20;;
15063;SDS011;7631;52.088;5.088;2023-05-02T02:59:34;3.80;;;2.10;;
15063;SDS011;7631;52.088;5.088;2023-05-02T03:02:05;5.43;;;1.97;;
15063;SDS011;7631;52.088;5.088;2023-05-02T03:04:32;3.17;;;1.93;;
15063;SDS011;7631;52.088;5.088;2023-05-02T03:06:59;3.50;;;1.70;;
15063;SDS011;7631;52.088;5.088;2023-05-02T03:09:24;3.63;;;1.70;;
15063;SDS011;7631;52.088;5.088;2023-05-02T03:11:51;2.60;;;1.70;;
15063;SDS011;7631;52.088;5.088;2023-05-02T03:14:16;4.50;;;1.80;;
15063;SDS011;7631;52.088;5.088;2023-05-02T03:16:41;2.87;;;2.00;;
15063;SDS011;7631;52.088;5.088;2023-05-02T03:19:07;4.40;;;1.87;;
15063;SDS011;7631;52.088;5.088;2023-05-02T03:21:32;2.93;;;1.70;;
15063;SDS011;7631;52.088;5.088;2023-05-02T03:24:02;3.00;;;1.67;;
15063;SDS011;7631;52.088;5.088;2023-05-02T03:26:28;4.10;;;1.97;;
15063;SDS011;7631;52.088;5.088;2023-05-02T03:28:53;2.87;;;1.50;;
15063;SDS011;7631;52.088;5.088;2023-05-02T03:31:19;3.37;;;1.80;;
15063;SDS011;7631;52.088;5.088;2023-05-02T03:33:44;2.50;;;1.63;;
15063;SDS011;7631;52.088;5.088;2023-05-02T03:36:10;3.03;;;1.60;;
15063;SDS011;7631;52.088;5.088;2023-05-02T03:38:35;2.03;;;1.50;;
15063;SDS011;7631;52.088;5.088;2023-05-02T03:41:00;3.57;;;1.50;;
15063;SDS011;7631;52.088;5.088;2023-05-02T03:43:25;3.57;;;1.47;;
15063;SDS011;7631;52.088;5.088;2023-05-02T03:45:51;2.73;;;1.50;;
15063;SDS011;7631;52.088;5.088;2023-05-02T03:48:16;3.47;;;1.40;;
15063;SDS011;7631;52.088;5.088;2023-05-02T03:50:41;3.90;;;1.60;;
15063;SDS011;7631;52.088;5.088;2023-05-02T03:53:07;2.03;;;1.40;;
15063;SDS011;7631;52.088;5.088;2023-05-02T03:55:37;3.13;;;1.50;;
15063;SDS011;7631;52.088;5.088;2023-05-02T03:58:02;2.00;;;1.30;;
15063;SDS011;7631;52.088;5.088;2023-05-02T04:00:28;1.60;;;1.20;;
15063;SDS011;7631;52.088;5.088;2023-05-02T04:02:53;3.43;;;1.30;;
15063;SDS011;7631;52.088;5.088;2023-05-02T04:05:18;2.67;;;1.30;;
15063;SDS011;7631;52.088;5.088;2023-05-02T04:07:43;3.10;;;1.23;;
15063;SDS011;7631;52.088;5.088;2023-05-02T04:10:09;1.93;;;1.30;;
15063;SDS011;7631;52.088;5.088;2023-05-02T04:12:40;1.63;;;1.13;;
15063;SDS011;7631;52.088;5.088;2023-05-02T04:15:05;4.20;;;1.63;;
15063;SDS011;7631;52.088;5.088;2023-05-02T04:17:30;2.07;;;1.20;;
15063;SDS011;7631;52.088;5.088;2023-05-02T04:19:56;1.60;;;1.13;;
15063;SDS011;7631;52.088;5.088;2023-05-02T04:22:21;2.63;;;1.60;;
15063;SDS011;7631;52.088;5.088;2023-05-02T04:24:46;3.60;;;1.23;;
15063;SDS011;7631;52.088;5.088;2023-05-02T04:27:11;2.00;;;1.20;;
15063;SDS011;7631;52.088;5.088;2023-05-02T04:29:37;3.73;;;1.40;;
15063;SDS011;7631;52.088;5.088;2023-05-02T04:32:02;3.47;;;1.60;;
15063;SDS011;7631;52.088;5.088;2023-05-02T04:34:27;2.80;;;1.30;;
15063;SDS011;7631;52.088;5.088;2023-05-02T04:36:53;3.73;;;1.53;;
15063;SDS011;7631;52.088;5.088;2023-05-02T04:39:18;3.30;;;1.43;;
15063;SDS011;7631;52.088;5.088;2023-05-02T04:41:43;2.33;;;1.20;;
15063;SDS011;7631;52.088;5.088;2023-05-02T04:44:08;5.43;;;1.53;;
15063;SDS011;7631;52.088;5.088;2023-05-02T04:46:33;4.07;;;1.27;;
15063;SDS011;7631;52.088;5.088;2023-05-02T04:48:58;3.30;;;1.50;;
15063;SDS011;7631;52.088;5.088;2023-05-02T04:51:24;3.73;;;1.40;;
15063;SDS011;7631;52.088;5.088;2023-05-02T04:53:49;3.40;;;1.37;;
15063;SDS011;7631;52.088;5.088;2023-05-02T04:56:15;2.57;;;1.20;;
15063;SDS011;7631;52.088;5.088;2023-05-02T04:58:40;3.93;;;1.40;;
15063;SDS011;7631;52.088;5.088;2023-05-02T05:01:05;2.97;;;1.23;;
15063;SDS011;7631;52.088;5.088;2023-05-02T05:03:30;3.47;;;1.43;;
15063;SDS011;7631;52.088;5.088;2023-05-02T05:05:57;5.33;;;1.40;;
15063;SDS011;7631;52.088;5.088;2023-05-02T05:08:22;3.63;;;1.37;;
15063;SDS011;7631;52.088;5.088;2023-05-02T05:10:47;3.43;;;1.20;;
15063;SDS011;7631;52.088;5.088;2023-05-02T05:13:12;3.10;;;1.37;;
15063;SDS011;7631;52.088;5.088;2023-05-02T05:15:38;3.77;;;1.70;;
15063;SDS011;7631;52.088;5.088;2023-05-02T05:18:04;3.53;;;1.57;;
15063;SDS011;7631;52.088;5.088;2023-05-02T05:20:29;3.50;;;1.87;;
15063;SDS011;7631;52.088;5.088;2023-05-02T05:22:54;2.37;;;1.30;;
15063;SDS011;7631;52.088;5.088;2023-05-02T05:25:20;3.80;;;1.30;;
15063;SDS011;7631;52.088;5.088;2023-05-02T05:27:45;4.47;;;1.87;;
15063;SDS011;7631;52.088;5.088;2023-05-02T05:30:10;3.67;;;1.80;;
15063;SDS011;7631;52.088;5.088;2023-05-02T05:32:36;3.20;;;1.60;;
15063;SDS011;7631;52.088;5.088;2023-05-02T05:35:01;4.70;;;1.83;;
15063;SDS011;7631;52.088;5.088;2023-05-02T05:37:26;4.00;;;1.73;;
15063;SDS011;7631;52.088;5.088;2023-05-02T05:39:52;3.87;;;1.90;;
15063;SDS011;7631;52.088;5.088;2023-05-02T05:42:18;4.13;;;1.60;;
15063;SDS011;7631;52.088;5.088;2023-05-02T05:44:43;4.50;;;1.77;;
15063;SDS011;7631;52.088;5.088;2023-05-02T05:47:08;3.97;;;1.67;;
15063;SDS011;7631;52.088;5.088;2023-05-02T05:49:33;4.40;;;1.97;;
15063;SDS011;7631;52.088;5.088;2023-05-02T05:52:00;2.67;;;1.40;;
15063;SDS011;7631;52.088;5.088;2023-05-02T05:54:25;3.77;;;1.70;;
15063;SDS011;7631;52.088;5.088;2023-05-02T05:56:50;4.17;;;1.57;;
15063;SDS011;7631;52.088;5.088;2023-05-02T05:59:15;5.57;;;1.97;;
15063;SDS011;7631;52.088;5.088;2023-05-02T06:01:41;3.30;;;1.50;;
15063;SDS011;7631;52.088;5.088;2023-05-02T06:04:06;2.93;;;1.67;;
15063;SDS011;7631;52.088;5.088;2023-05-02T06:06:32;3.37;;;1.60;;
15063;SDS011;7631;52.088;5.088;2023-05-02T06:08:57;2.43;;;1.40;;
15063;SDS011;7631;52.088;5.088;2023-05-02T06:11:22;4.57;;;1.77;;
15063;SDS011;7631;52.088;5.088;2023-05-02T06:13:51;3.67;;;1.57;;
15063;SDS011;7631;52.088;5.088;2023-05-02T06:16:16;4.20;;;1.80;;
15063;SDS011;7631;52.088;5.088;2023-05-02T06:18:49;4.73;;;1.70;;
15063;SDS011;7631;52.088;5.088;2023-05-02T06:21:14;3.00;;;1.40;;
15063;SDS011;7631;52.088;5.088;2023-05-02T06:23:39;4.07;;;1.70;;
15063;SDS011;7631;52.088;5.088;2023-05-02T06:26:05;3.03;;;1.50;;
15063;SDS011;7631;52.088;5.088;2023-05-02T06:28:30;2.93;;;1.20;;
15063;SDS011;7631;52.088;5.088;2023-05-02T06:30:59;2.10;;;1.57;;
15063;SDS011;7631;52.088;5.088;2023-05-02T06:33:26;3.07;;;1.23;;
15063;SDS011;7631;52.088;5.088;2023-05-02T06:35:51;3.90;;;1.87;;
15063;SDS011;7631;52.088;5.088;2023-05-02T06:38:17;2.03;;;1.17;;
15063;SDS011;7631;52.088;5.088;2023-05-02T06:40:42;2.37;;;1.40;;
15063;SDS011;7631;52.088;5.088;2023-05-02T06:43:09;4.07;;;1.77;;
15063;SDS011;7631;52.088;5.088;2023-05-02T06:45:34;4.43;;;1.73;;
15063;SDS011;7631;52.088;5.088;2023-05-02T06:47:59;2.70;;;1.43;;
15063;SDS011;7631;52.088;5.088;2023-05-02T06:50:24;3.70;;;1.80;;
15063;SDS011;7631;52.088;5.088;2023-05-02T06:52:50;2.80;;;1.47;;
15063;SDS011;7631;52.088;5.088;2023-05-02T06:55:15;4.07;;;1.30;;
15063;SDS011;7631;52.088;5.088;2023-05-02T06:57:40;2.73;;;1.40;;
15063;SDS011;7631;52.088;5.088;2023-05-02T07:00:06;2.20;;;1.30;;
15063;SDS011;7631;52.088;5.088;2023-05-02T07:02:31;4.20;;;1.40;;
15063;SDS011;7631;52.088;5.088;2023-05-02T07:04:56;3.00;;;1.20;;
15063;SDS011;7631;52.088;5.088;2023-05-02T07:07:22;4.40;;;1.43;;
15063;SDS011;7631;52.088;5.088;2023-05-02T07:09:47;3.67;;;1.60;;
15063;SDS011;7631;52.088;5.088;2023-05-02T07:12:12;3.20;;;1.63;;
15063;SDS011;7631;52.088;5.088;2023-05-02T07:14:38;4.07;;;1.60;;
15063;SDS011;7631;52.088;5.088;2023-05-02T07:17:03;2.47;;;1.43;;
15063;SDS011;7631;52.088;5.088;2023-05-02T07:19:28;3.73;;;1.50;;
15063;SDS011;7631;52.088;5.088;2023-05-02T07:21:53;4.13;;;1.27;;
15063;SDS011;7631;52.088;5.088;2023-05-02T07:24:19;3.03;;;1.20;;
15063;SDS011;7631;52.088;5.088;2023-05-02T07:26:44;2.67;;;1.30;;
15063;SDS011;7631;52.088;5.088;2023-05-02T07:29:09;3.50;;;1.53;;
15063;SDS011;7631;52.088;5.088;2023-05-02T07:31:34;3.83;;;1.33;;
15063;SDS011;7631;52.088;5.088;2023-05-02T07:34:00;3.63;;;1.60;;
15063;SDS011;7631;52.088;5.088;2023-05-02T07:36:25;3.90;;;1.47;;
15063;SDS011;7631;52.088;5.088;2023-05-02T07:38:51;2.60;;;1.30;;
15063;SDS011;7631;52.088;5.088;2023-05-02T07:41:17;2.10;;;1.27;;
15063;SDS011;7631;52.088;5.088;2023-05-02T07:43:42;2.43;;;1.30;;
15063;SDS011;7631;52.088;5.088;2023-05-02T07:46:07;2.00;;;1.27;;
15063;SDS011;7631;52.088;5.088;2023-05-02T07:48:32;3.50;;;1.40;;
15063;SDS011;7631;52.088;5.088;2023-05-02T07:51:08;3.17;;;1.20;;
15063;SDS011;7631;52.088;5.088;2023-05-02T07:53:33;2.40;;;1.10;;
15063;SDS011;7631;52.088;5.088;2023-05-02T07:55:58;3.60;;;1.33;;
15063;SDS011;7631;52.088;5.088;2023-05-02T07:58:23;2.73;;;1.20;;
15063;SDS011;7631;52.088;5.088;2023-05-02T08:00:49;1.93;;;1.10;;
15063;SDS011;7631;52.088;5.088;2023-05-02T08:03:14;3.37;;;1.50;;
15063;SDS011;7631;52.088;5.088;2023-05-02T08:05:39;2.10;;;1.23;;
15063;SDS011;7631;52.088;5.088;2023-05-02T08:08:04;2.43;;;1.37;;
15063;SDS011;7631;52.088;5.088;2023-05-02T08:10:30;3.00;;;1.10;;
15063;SDS011;7631;52.088;5.088;2023-05-02T08:12:55;2.17;;;1.13;;
15063;SDS011;7631;52.088;5.088;2023-05-02T08:15:20;2.07;;;1.23;;
15063;SDS011;7631;52.088;5.088;2023-05-02T08:17:46;2.70;;;1.23;;
15063;SDS011;7631;52.088;5.088;2023-05-02T08:20:11;3.17;;;1.27;;
15063;SDS011;7631;52.088;5.088;2023-05-02T08:22:36;2.67;;;1.33;;
15063;SDS011;7631;52.088;5.088;2023-05-02T08:25:02;2.10;;;1.10;;
15063;SDS011;7631;52.088;5.088;2023-05-02T08:27:27;2.63;;;1.10;;
15063;SDS011;7631;52.088;5.088;2023-05-02T08:29:52;2.13;;;1.20;;
15063;SDS011;7631;52.088;5.088;2023-05-02T08:32:17;2.50;;;1.20;;
15063;SDS011;7631;52.088;5.088;2023-05-02T08:34:42;2.83;;;1.20;;
15063;SDS011;7631;52.088;5.088;2023-05-02T08:37:08;2.93;;;1.63;;
15063;SDS011;7631;52.088;5.088;2023-05-02T08:39:34;2.33;;;1.20;;
15063;SDS011;7631;52.088;5.088;2023-05-02T08:41:59;2.80;;;1.30;;
15063;SDS011;7631;52.088;5.088;2023-05-02T08:44:24;3.67;;;1.30;;
15063;SDS011;7631;52.088;5.088;2023-05-02T08:46:50;3.30;;;1.20;;
15063;SDS011;7631;52.088;5.088;2023-05-02T08:49:16;2.37;;;1.30;;
15063;SDS011;7631;52.088;5.088;2023-05-02T08:51:42;3.93;;;1.60;;
15063;SDS011;7631;52.088;5.088;2023-05-02T08:54:09;2.27;;;1.30;;
15063;SDS011;7631;52.088;5.088;2023-05-02T08:56:34;2.17;;;1.20;;
15063;SDS011;7631;52.088;5.088;2023-05-02T08:59:00;2.20;;;1.13;;
15063;SDS011;7631;52.088;5.088;2023-05-02T09:01:27;2.43;;;1.07;;
15063;SDS011;7631;52.088;5.088;2023-05-02T09:03:52;2.53;;;1.47;;
15063;SDS011;7631;52.088;5.088;2023-05-02T09:06:20;3.07;;;1.23;;
15063;SDS011;7631;52.088;5.088;2023-05-02T09:08:49;3.13;;;1.27;;
15063;SDS011;7631;52.088;5.088;2023-05-02T09:11:16;3.03;;;1.10;;
15063;SDS011;7631;52.088;5.088;2023-05-02T09:13:45;2.23;;;1.30;;
15063;SDS011;7631;52.088;5.088;2023-05-02T09:16:11;2.40;;;1.10;;
15063;SDS011;7631;52.088;5.088;2023-05-02T09:18:47;1.93;;;1.10;;
15063;SDS011;7631;52.088;5.088;2023-05-02T09:21:16;3.13;;;1.27;;
15063;SDS011;7631;52.088;5.088;2023-05-02T09:23:45;3.73;;;1.30;;
15063;SDS011;7631;52.088;5.088;2023-05-02T09:28:42;2.37;;;1.23;;
15063;SDS011;7631;52.088;5.088;2023-05-02T09:31:12;1.57;;;1.13;;
15063;SDS011;7631;52.088;5.088;2023-05-02T09:33:38;1.67;;;1.40;;
15063;SDS011;7631;52.088;5.088;2023-05-02T09:36:04;2.83;;;1.50;;
15063;SDS011;7631;52.088;5.088;2023-05-02T09:38:31;1.67;;;1.10;;
15063;SDS011;7631;52.088;5.088;2023-05-02T09:40:56;2.20;;;1.13;;
15063;SDS011;7631;52.088;5.088;2023-05-02T09:43:21;2.00;;;1.40;;
15063;SDS011;7631;52.088;5.088;2023-05-02T09:45:56;2.43;;;1.10;;
15063;SDS011;7631;52.088;5.088;2023-05-02T09:48:22;2.73;;;1.33;;
15063;SDS011;7631;52.088;5.088;2023-05-02T09:50:47;1.37;;;1.00;;
15063;SDS011;7631;52.088;5.088;2023-05-02T09:53:12;2.13;;;1.20;;
15063;SDS011;7631;52.088;5.088;2023-05-02T09:55:37;2.50;;;1.57;;
15063;SDS011;7631;52.088;5.088;2023-05-02T09:58:03;2.73;;;1.30;;
15063;SDS011;7631;52.088;5.088;2023-05-02T10:00:38;1.47;;;1.17;;
15063;SDS011;7631;52.088;5.088;2023-05-02T10:03:06;2.10;;;1.00;;
15063;SDS011;7631;52.088;5.088;2023-05-02T10:05:34;3.27;;;1.47;;
15063;SDS011;7631;52.088;5.088;2023-05-02T10:08:00;2.97;;;1.30;;
15063;SDS011;7631;52.088;5.088;2023-05-02T10:10:26;2.17;;;1.20;;
15063;SDS011;7631;52.088;5.088;2023-05-02T10:12:51;3.23;;;1.50;;
15063;SDS011;7631;52.088;5.088;2023-05-02T10:15:18;3.40;;;1.23;;
15063;SDS011;7631;52.088;5.088;2023-05-02T10:17:47;2.10;;;1.40;;
15063;SDS011;7631;52.088;5.088;2023-05-02T10:20:13;2.13;;;1.40;;
15063;SDS011;7631;52.088;5.088;2023-05-02T10:22:41;3.10;;;1.30;;
15063;SDS011;7631;52.088;5.088;2023-05-02T10:25:07;2.27;;;1.33;;
15063;SDS011;7631;52.088;5.088;2023-05-02T10:27:33;3.20;;;1.70;;
15063;SDS011;7631;52.088;5.088;2023-05-02T10:29:58;2.57;;;1.33;;
15063;SDS011;7631;52.088;5.088;2023-05-02T10:32:26;2.87;;;1.40;;
15063;SDS011;7631;52.088;5.088;2023-05-02T10:34:51;2.13;;;1.30;;
15063;SDS011;7631;52.088;5.088;2023-05-02T10:37:18;2.97;;;1.70;;
15063;SDS011;7631;52.088;5.088;2023-05-02T10:39:43;3.77;;;1.50;;
15063;SDS011;7631;52.088;5.088;2023-05-02T10:42:09;2.50;;;1.30;;
15063;SDS011;7631;52.088;5.088;2023-05-02T10:44:35;2.33;;;1.40;;
15063;SDS011;7631;52.088;5.088;2023-05-02T10:47:16;3.87;;;1.50;;
15063;SDS011;7631;52.088;5.088;2023-05-02T10:49:58;2.37;;;1.40;;
15063;SDS011;7631;52.088;5.088;2023-05-02T10:52:33;3.30;;;1.33;;
15063;SDS011;7631;52.088;5.088;2023-05-02T10:55:12;2.67;;;1.50;;
15063;SDS011;7631;52.088;5.088;2023-05-02T11:00:21;3.73;;;1.47;;
15063;SDS011;7631;52.088;5.088;2023-05-02T11:02:47;2.27;;;1.37;;
15063;SDS011;7631;52.088;5.088;2023-05-02T11:05:12;1.60;;;1.23;;
15063;SDS011;7631;52.088;5.088;2023-05-02T11:07:37;4.13;;;1.43;;
15063;SDS011;7631;52.088;5.088;2023-05-02T11:12:49;2.73;;;1.70;;
15063;SDS011;7631;52.088;5.088;2023-05-02T11:18:00;4.73;;;2.07;;
15063;SDS011;7631;52.088;5.088;2023-05-02T11:20:26;3.30;;;1.83;;
15063;SDS011;7631;52.088;5.088;2023-05-02T11:22:51;2.93;;;1.40;;
15063;SDS011;7631;52.088;5.088;2023-05-02T11:25:30;4.07;;;1.80;;
15063;SDS011;7631;52.088;5.088;2023-05-02T11:27:55;3.20;;;1.67;;
15063;SDS011;7631;52.088;5.088;2023-05-02T11:35:30;2.67;;;1.60;;
15063;SDS011;7631;52.088;5.088;2023-05-02T11:37:56;3.77;;;1.50;;
15063;SDS011;7631;52.088;5.088;2023-05-02T11:40:22;2.93;;;1.73;;
15063;SDS011;7631;52.088;5.088;2023-05-02T11:42:47;2.10;;;1.83;;
15063;SDS011;7631;52.088;5.088;2023-05-02T11:45:13;2.33;;;1.90;;
15063;SDS011;7631;52.088;5.088;2023-05-02T11:47:39;4.93;;;1.97;;
15063;SDS011;7631;52.088;5.088;2023-05-02T11:50:05;1.93;;;1.60;;
15063;SDS011;7631;52.088;5.088;2023-05-02T11:52:35;2.00;;;1.53;;
15063;SDS011;7631;52.088;5.088;2023-05-02T11:55:00;3.00;;;2.00;;
15063;SDS011;7631;52.088;5.088;2023-05-02T11:57:26;2.83;;;1.70;;
15063;SDS011;7631;52.088;5.088;2023-05-02T11:59:52;3.43;;;1.90;;
15063;SDS011;7631;52.088;5.088;2023-05-02T12:02:17;3.30;;;2.10;;
15063;SDS011;7631;52.088;5.088;2023-05-02T12:04:43;2.77;;;1.70;;
15063;SDS011;7631;52.088;5.088;2023-05-02T12:07:11;2.87;;;1.67;;
15063;SDS011;7631;52.088;5.088;2023-05-02T12:09:52;3.67;;;1.93;;
15063;SDS011;7631;52.088;5.088;2023-05-02T12:12:20;3.83;;;1.90;;
15063;SDS011;7631;52.088;5.088;2023-05-02T12:14:46;4.53;;;1.97;;
15063;SDS011;7631;52.088;5.088;2023-05-02T12:17:11;3.70;;;1.67;;
15063;SDS011;7631;52.088;5.088;2023-05-02T12:19:37;4.77;;;1.90;;
15063;SDS011;7631;52.088;5.088;2023-05-02T12:22:02;2.60;;;1.67;;
15063;SDS011;7631;52.088;5.088;2023-05-02T12:24:27;5.03;;;2.50;;
15063;SDS011;7631;52.088;5.088;2023-05-02T12:27:12;3.57;;;1.80;;
15063;SDS011;7631;52.088;5.088;2023-05-02T12:29:38;3.53;;;2.17;;
15063;SDS011;7631;52.088;5.088;2023-05-02T12:32:04;3.63;;;2.10;;
15063;SDS011;7631;52.088;5.088;2023-05-02T12:34:36;2.90;;;1.80;;
15063;SDS011;7631;52.088;5.088;2023-05-02T12:37:02;2.63;;;1.70;;
15063;SDS011;7631;52.088;5.088;2023-05-02T12:39:37;3.20;;;1.90;;
15063;SDS011;7631;52.088;5.088;2023-05-02T12:42:12;3.03;;;1.77;;
15063;SDS011;7631;52.088;5.088;2023-05-02T12:44:38;6.07;;;2.17;;
15063;SDS011;7631;52.088;5.088;2023-05-02T12:47:04;2.70;;;1.87;;
15063;SDS011;7631;52.088;5.088;2023-05-02T12:49:29;3.10;;;1.87;;
15063;SDS011;7631;52.088;5.088;2023-05-02T12:51:55;4.70;;;2.13;;
15063;SDS011;7631;52.088;5.088;2023-05-02T12:54:21;3.47;;;1.80;;
15063;SDS011;7631;52.088;5.088;2023-05-02T12:56:46;2.93;;;1.80;;
15063;SDS011;7631;52.088;5.088;2023-05-02T12:59:46;2.97;;;1.70;;
15063;SDS011;7631;52.088;5.088;2023-05-02T13:02:04;2.20;;;1.80;;
15063;SDS011;7631;52.088;5.088;2023-05-02T13:04:36;4.20;;;2.13;;
15063;SDS011;7631;52.088;5.088;2023-05-02T13:07:03;3.27;;;1.90;;
15063;SDS011;7631;52.088;5.088;2023-05-02T13:09:28;2.67;;;2.07;;
15063;SDS011;7631;52.088;5.088;2023-05-02T13:11:53;4.87;;;2.17;;
15063;SDS011;7631;52.088;5.088;2023-05-02T13:14:18;4.17;;;2.00;;
15063;SDS011;7631;52.088;5.088;2023-05-02T13:16:44;3.53;;;1.90;;
15063;SDS011;7631;52.088;5.088;2023-05-02T13:19:09;2.67;;;1.80;;
15063;SDS011;7631;52.088;5.088;2023-05-02T13:21:34;3.70;;;2.20;;
15063;SDS011;7631;52.088;5.088;2023-05-02T13:23:59;4.97;;;2.27;;
15063;SDS011;7631;52.088;5.088;2023-05-02T13:26:25;2.80;;;2.00;;
15063;SDS011;7631;52.088;5.088;2023-05-02T13:28:50;3.40;;;2.20;;
15063;SDS011;7631;52.088;5.088;2023-05-02T13:31:15;3.97;;;2.20;;
15063;SDS011;7631;52.088;5.088;2023-05-02T13:33:41;4.97;;;2.30;;
15063;SDS011;7631;52.088;5.088;2023-05-02T13:36:06;2.70;;;1.97;;
15063;SDS011;7631;52.088;5.088;2023-05-02T13:38:31;2.80;;;2.20;;
15063;SDS011;7631;52.088;5.088;2023-05-02T13:40:57;4.83;;;2.30;;
15063;SDS011;7631;52.088;5.088;2023-05-02T13:43:23;2.90;;;2.27;;
15063;SDS011;7631;52.088;5.088;2023-05-02T13:45:48;3.10;;;2.17;;
15063;SDS011;7631;52.088;5.088;2023-05-02T13:48:13;3.70;;;2.33;;
15063;SDS011;7631;52.088;5.088;2023-05-02T13:50:39;3.77;;;2.10;;
15063;SDS011;7631;52.088;5.088;2023-05-02T13:53:05;3.43;;;2.50;;
15063;SDS011;7631;52.088;5.088;2023-05-02T13:55:30;4.60;;;2.70;;
15063;SDS011;7631;52.088;5.088;2023-05-02T13:57:55;3.53;;;2.30;;
15063;SDS011;7631;52.088;5.088;2023-05-02T14:00:21;3.63;;;2.13;;
15063;SDS011;7631;52.088;5.088;2023-05-02T14:02:46;2.77;;;2.00;;
15063;SDS011;7631;52.088;5.088;2023-05-02T14:05:12;3.33;;;2.00;;
15063;SDS011;7631;52.088;5.088;2023-05-02T14:07:37;4.43;;;2.70;;
15063;SDS011;7631;52.088;5.088;2023-05-02T14:10:03;3.83;;;2.27;;
15063;SDS011;7631;52.088;5.088;2023-05-02T14:12:28;3.53;;;2.27;;
15063;SDS011;7631;52.088;5.088;2023-05-02T14:14:53;2.20;;;2.00;;
15063;SDS011;7631;52.088;5.088;2023-05-02T14:17:19;3.70;;;2.10;;
15063;SDS011;7631;52.088;5.088;2023-05-02T14:19:44;3.80;;;2.40;;
15063;SDS011;7631;52.088;5.088;2023-05-02T14:22:09;4.63;;;2.40;;
15063;SDS011;7631;52.088;5.088;2023-05-02T14:24:34;4.20;;;2.40;;
15063;SDS011;7631;52.088;5.088;2023-05-02T14:27:00;3.83;;;2.37;;
15063;SDS011;7631;52.088;5.088;2023-05-02T14:29:25;4.20;;;2.67;;
15063;SDS011;7631;52.088;5.088;2023-05-02T14:31:50;3.90;;;2.50;;
15063;SDS011;7631;52.088;5.088;2023-05-02T14:34:16;3.70;;;2.50;;
15063;SDS011;7631;52.088;5.088;2023-05-02T14:36:41;2.73;;;2.30;;
15063;SDS011;7631;52.088;5.088;2023-05-02T14:39:06;4.00;;;2.67;;
15063;SDS011;7631;52.088;5.088;2023-05-02T14:41:31;3.00;;;2.13;;
15063;SDS011;7631;52.088;5.088;2023-05-02T14:43:57;4.70;;;2.47;;
15063;SDS011;7631;52.088;5.088;2023-05-02T14:46:22;3.73;;;2.13;;
15063;SDS011;7631;52.088;5.088;2023-05-02T14:48:47;4.57;;;2.40;;
15063;SDS011;7631;52.088;5.088;2023-05-02T14:51:12;4.73;;;2.30;;
15063;SDS011;7631;52.088;5.088;2023-05-02T14:53:38;4.37;;;2.13;;
15063;SDS011;7631;52.088;5.088;2023-05-02T14:56:03;2.53;;;1.90;;
15063;SDS011;7631;52.088;5.088;2023-05-02T14:58:29;3.53;;;2.20;;
15063;SDS011;7631;52.088;5.088;2023-05-02T15:00:54;3.37;;;2.30;;
15063;SDS011;7631;52.088;5.088;2023-05-02T15:03:19;3.73;;;2.40;;
15063;SDS011;7631;52.088;5.088;2023-05-02T15:05:44;2.20;;;2.00;;
15063;SDS011;7631;52.088;5.088;2023-05-02T15:08:09;4.27;;;2.20;;
15063;SDS011;7631;52.088;5.088;2023-05-02T15:10:35;6.27;;;2.70;;
15063;SDS011;7631;52.088;5.088;2023-05-02T15:13:00;3.97;;;2.30;;
15063;SDS011;7631;52.088;5.088;2023-05-02T15:15:27;2.77;;;2.07;;
15063;SDS011;7631;52.088;5.088;2023-05-02T15:17:53;5.17;;;2.60;;
15063;SDS011;7631;52.088;5.088;2023-05-02T15:20:18;4.50;;;2.10;;
15063;SDS011;7631;52.088;5.088;2023-05-02T15:22:43;3.37;;;2.00;;
15063;SDS011;7631;52.088;5.088;2023-05-02T15:25:09;3.90;;;2.53;;